Time;durP1;ratioP1;P1;durP2;ratioP2;P2;SDS_P1;SDS_P2;PMS_P1;PMS_P2;Temp;Humidity;BMP_temperature;BMP_pressure;BME280_temperature;BME280_humidity;BME280_pressure;Samples;Min_cycle;Max_cycle;Signal;HPM_P1;HPM_P2
2021/01/14 00:01:07;;;;;;;;;;;19.40;56.70;;;;;;5055668;28;1948;-66
2021/01/14 00:03:32;;;;;;;;;;;19.40;56.70;;;;;;5054620;28;1595;-66
2021/01/14 00:05:58;;;;;;;;;;;19.40;56.70;;;;;;5055192;28;1396;-66
2021/01/14 00:08:23;;;;;;;;;;;19.40;56.70;;;;;;5054979;28;1456;-66
2021/01/14 00:10:48;;;;;;;;;;;19.40;56.70;;;;;;5055405;28;1646;-66
2021/01/14 00:13:14;;;;;;;;;;;19.30;56.60;;;;;;5055188;28;1733;-66
2021/01/14 00:15:39;;;;;;;;;;;19.40;56.70;;;;;;5054916;28;1611;-67
2021/01/14 00:18:05;;;;;;;;;;;19.40;56.70;;;;;;5054338;28;861;-67
2021/01/14 00:20:30;;;;;;;;;;;19.30;56.70;;;;;;5046326;28;1910;-66
2021/01/14 00:22:56;;;;;;;;;;;19.30;56.70;;;;;;5017294;28;1501;-66
2021/01/14 00:25:21;;;;;;;;;;;19.40;56.70;;;;;;5034949;28;1684;-67
2021/01/14 00:27:47;;;;;;;;;;;19.30;56.70;;;;;;5034353;28;1684;-67
2021/01/14 00:30:14;;;;;;;;;;;19.30;56.70;;;;;;5035185;28;1218;-66
2021/01/14 00:32:39;;;;;;;;;;;19.40;56.80;;;;;;5049804;28;1855;-67
2021/01/14 00:35:05;;;;;;;;;;;19.30;56.70;;;;;;5036501;28;1374;-66
2021/01/14 00:40:15;;;;;;;;;;;19.30;56.70;;;;;;5035214;28;1907;-66
2021/01/14 00:42:40;;;;;;;;;;;19.40;56.80;;;;;;5034882;28;1573;-66
2021/01/14 00:45:06;;;;;;;;;;;19.30;56.80;;;;;;5044508;28;1485;-66
2021/01/14 00:47:35;;;;;;;;;;;19.40;56.80;;;;;;5036560;28;1727;-67
2021/01/14 00:50:01;;;;;;;;;;;19.30;56.80;;;;;;5043971;28;1397;-66
2021/01/14 00:52:26;;;;;;;;;;;19.30;56.80;;;;;;5066580;28;1513;-66
2021/01/14 00:54:52;;;;;;;;;;;19.30;56.80;;;;;;5053926;28;1662;-66
2021/01/14 00:57:17;;;;;;;;;;;19.30;56.90;;;;;;5054109;28;1703;-66
2021/01/14 00:59:43;;;;;;;;;;;19.30;56.80;;;;;;5036544;28;1953;-67
2021/01/14 01:02:08;;;;;;;;;;;19.30;56.80;;;;;;5054412;28;1641;-67
2021/01/14 01:04:33;;;;;;;;;;;19.30;56.80;;;;;;5053667;28;1670;-67
2021/01/14 01:06:59;;;;;;;;;;;19.30;56.90;;;;;;5054083;28;1596;-66
2021/01/14 01:09:24;;;;;;;;;;;19.30;56.90;;;;;;5053813;28;1388;-66
2021/01/14 01:11:50;;;;;;;;;;;19.30;56.90;;;;;;5053954;28;1527;-66
2021/01/14 01:14:15;;;;;;;;;;;19.30;56.90;;;;;;5035800;28;1539;-66
2021/01/14 01:16:41;;;;;;;;;;;19.30;56.90;;;;;;5035751;28;1618;-66
2021/01/14 01:19:06;;;;;;;;;;;19.30;56.90;;;;;;5053888;28;1679;-66
2021/01/14 01:21:32;;;;;;;;;;;19.30;56.90;;;;;;5035988;28;1914;-66
2021/01/14 01:23:57;;;;;;;;;;;19.30;56.90;;;;;;5053755;28;1656;-65
2021/01/14 01:26:23;;;;;;;;;;;19.20;56.90;;;;;;5053328;28;1386;-65
2021/01/14 01:28:48;;;;;;;;;;;19.30;56.90;;;;;;5053348;28;1430;-65
2021/01/14 01:31:14;;;;;;;;;;;19.30;57.00;;;;;;5053762;28;1692;-65
2021/01/14 01:33:39;;;;;;;;;;;19.20;56.90;;;;;;5053099;28;1606;-66
2021/01/14 01:36:05;;;;;;;;;;;19.20;57.00;;;;;;5035351;28;1347;-65
2021/01/14 01:38:30;;;;;;;;;;;19.20;57.00;;;;;;5035960;28;1371;-65
2021/01/14 01:40:59;;;;;;;;;;;19.20;57.00;;;;;;5051064;28;1964;-65
2021/01/14 01:43:25;;;;;;;;;;;19.20;57.00;;;;;;5035516;28;1592;-65
2021/01/14 01:45:51;;;;;;;;;;;19.20;57.00;;;;;;5053433;28;1607;-65
2021/01/14 01:48:16;;;;;;;;;;;19.20;57.00;;;;;;5053579;28;1669;-66
2021/01/14 01:50:43;;;;;;;;;;;19.20;57.00;;;;;;5057556;28;1683;-65
2021/01/14 01:53:09;;;;;;;;;;;19.20;57.00;;;;;;5044339;28;1626;-66
2021/01/14 01:55:34;;;;;;;;;;;19.20;57.00;;;;;;5035022;28;1700;-66
2021/01/14 01:58:00;;;;;;;;;;;19.20;57.00;;;;;;5053107;28;1673;-66
2021/01/14 02:00:25;;;;;;;;;;;19.20;57.00;;;;;;5053457;28;1906;-65
2021/01/14 02:02:51;;;;;;;;;;;19.20;57.00;;;;;;5053160;28;1580;-65
2021/01/14 02:05:17;;;;;;;;;;;19.20;57.00;;;;;;5052767;28;1387;-66
2021/01/14 02:07:48;;;;;;;;;;;19.20;57.00;;;;;;5051920;28;1685;-66
2021/01/14 02:10:18;;;;;;;;;;;19.20;57.00;;;;;;5053077;28;1584;-65
2021/01/14 02:12:55;;;;;;;;;;;19.20;57.00;;;;;;5035200;28;1683;-65
2021/01/14 02:15:21;;;;;;;;;;;19.20;57.00;;;;;;5039593;28;1639;-65
2021/01/14 02:17:47;;;;;;;;;;;19.20;57.00;;;;;;5034487;28;1638;-66
2021/01/14 02:20:12;;;;;;;;;;;19.20;57.00;;;;;;5035049;28;1910;-66
2021/01/14 02:22:38;;;;;;;;;;;19.20;57.10;;;;;;5052657;28;1655;-65
2021/01/14 02:25:03;;;;;;;;;;;19.20;57.10;;;;;;5052260;28;1675;-66
2021/01/14 02:27:29;;;;;;;;;;;19.20;57.00;;;;;;5052359;28;1178;-66
2021/01/14 02:29:55;;;;;;;;;;;19.20;57.00;;;;;;5034989;28;1739;-66
2021/01/14 02:32:20;;;;;;;;;;;19.20;57.00;;;;;;5034477;28;1823;-66
2021/01/14 02:34:48;;;;;;;;;;;19.20;57.10;;;;;;5052203;28;1374;-66
2021/01/14 02:37:14;;;;;;;;;;;19.10;57.00;;;;;;5052312;28;1605;-65
2021/01/14 02:39:39;;;;;;;;;;;19.20;57.10;;;;;;5052854;28;1906;-66
2021/01/14 02:42:05;;;;;;;;;;;19.20;57.00;;;;;;5052485;28;1396;-66
2021/01/14 02:44:30;;;;;;;;;;;19.20;57.00;;;;;;5052030;28;1649;-65
2021/01/14 02:46:56;;;;;;;;;;;19.20;57.00;;;;;;5052346;28;1425;-65
2021/01/14 02:49:21;;;;;;;;;;;19.20;57.00;;;;;;5034513;28;1675;-65
2021/01/14 02:51:47;;;;;;;;;;;19.20;57.00;;;;;;5047541;28;1286;-66
2021/01/14 02:54:14;;;;;;;;;;;19.20;57.00;;;;;;5051911;28;1570;-66
2021/01/14 02:56:40;;;;;;;;;;;19.20;57.00;;;;;;5034480;28;1631;-65
2021/01/14 02:59:05;;;;;;;;;;;19.30;56.90;;;;;;5034203;28;1544;-65
2021/01/14 03:01:31;;;;;;;;;;;19.20;56.90;;;;;;5052300;28;1910;-65
2021/01/14 03:03:56;;;;;;;;;;;19.30;56.90;;;;;;5051595;28;1370;-66
2021/01/14 03:06:22;;;;;;;;;;;19.30;56.90;;;;;;5051747;28;1292;-65
2021/01/14 03:08:47;;;;;;;;;;;19.30;56.80;;;;;;5052482;28;1368;-66
2021/01/14 03:11:13;;;;;;;;;;;19.30;56.80;;;;;;5052409;28;1402;-65
2021/01/14 03:13:38;;;;;;;;;;;19.30;56.80;;;;;;5051472;28;1618;-65
2021/01/14 03:16:06;;;;;;;;;;;19.30;56.70;;;;;;5051911;28;1717;-65
2021/01/14 03:18:31;;;;;;;;;;;19.30;57.30;;;;;;5052440;28;1718;-66
2021/01/14 03:20:57;;;;;;;;;;;19.30;56.70;;;;;;5056234;28;1906;-65
2021/01/14 03:23:22;;;;;;;;;;;19.30;56.70;;;;;;5055696;28;1170;-66
2021/01/14 03:25:48;;;;;;;;;;;19.30;56.70;;;;;;5055193;28;1192;-66
2021/01/14 03:28:13;;;;;;;;;;;19.30;56.70;;;;;;5055723;28;1402;-65
2021/01/14 03:30:39;;;;;;;;;;;19.30;56.70;;;;;;5055869;28;1479;-65
2021/01/14 03:33:04;;;;;;;;;;;19.30;56.70;;;;;;5056209;28;1521;-65
2021/01/14 03:35:30;;;;;;;;;;;19.30;56.70;;;;;;5055522;28;1261;-65
2021/01/14 03:37:55;;;;;;;;;;;19.30;56.70;;;;;;5055680;28;1424;-64
2021/01/14 03:40:21;;;;;;;;;;;19.30;56.60;;;;;;5055780;28;1906;-64
2021/01/14 03:42:46;;;;;;;;;;;19.30;56.60;;;;;;5055493;28;1376;-65
2021/01/14 03:45:12;;;;;;;;;;;19.30;56.70;;;;;;5055489;28;1638;-64
2021/01/14 03:47:37;;;;;;;;;;;19.30;56.60;;;;;;5055613;28;1680;-65
2021/01/14 03:50:03;;;;;;;;;;;19.30;57.20;;;;;;5055943;28;1365;-64
2021/01/14 03:52:29;;;;;;;;;;;19.30;56.60;;;;;;5068649;28;1608;-65
2021/01/14 03:54:54;;;;;;;;;;;19.40;56.70;;;;;;5055189;28;1052;-65
2021/01/14 03:57:20;;;;;;;;;;;19.30;56.60;;;;;;5036778;28;1212;-65
2021/01/14 03:59:45;;;;;;;;;;;19.30;56.60;;;;;;5054118;28;1901;-65
2021/01/14 04:02:11;;;;;;;;;;;19.30;56.60;;;;;;5054185;28;1316;-64
2021/01/14 04:04:37;;;;;;;;;;;19.30;56.60;;;;;;5055026;28;1284;-66
2021/01/14 04:07:10;;;;;;;;;;;19.30;56.60;;;;;;5037423;28;1312;-65
2021/01/14 04:09:35;;;;;;;;;;;19.30;56.60;;;;;;5037599;28;1348;-64
2021/01/14 04:12:01;;;;;;;;;;;19.30;56.50;;;;;;5055168;28;1424;-65
2021/01/14 04:14:26;;;;;;;;;;;19.30;56.50;;;;;;5054537;28;1155;-65
2021/01/14 04:16:52;;;;;;;;;;;19.30;56.50;;;;;;5055243;28;1306;-64
2021/01/14 04:19:18;;;;;;;;;;;19.30;56.50;;;;;;5054987;28;1362;-65
2021/01/14 04:21:43;;;;;;;;;;;19.30;56.50;;;;;;5036961;28;1972;-65
2021/01/14 04:24:09;;;;;;;;;;;19.30;57.10;;;;;;5036983;28;1025;-64
2021/01/14 04:26:35;;;;;;;;;;;19.40;56.60;;;;;;5054659;28;1284;-65
2021/01/14 04:29:00;;;;;;;;;;;19.30;56.50;;;;;;5054975;28;1340;-64
2021/01/14 04:31:26;;;;;;;;;;;19.30;56.50;;;;;;5053143;28;1235;-65
2021/01/14 04:33:51;;;;;;;;;;;19.30;56.50;;;;;;5054596;28;1362;-65
2021/01/14 04:36:18;;;;;;;;;;;19.40;56.60;;;;;;5054200;28;1331;-65
2021/01/14 04:38:43;;;;;;;;;;;19.30;56.50;;;;;;5054672;28;1093;-64
2021/01/14 04:41:08;;;;;;;;;;;19.40;56.60;;;;;;5054472;28;1949;-64
2021/01/14 04:43:34;;;;;;;;;;;19.30;56.60;;;;;;5054374;28;1295;-64
2021/01/14 04:46:04;;;;;;;;;;;19.30;56.50;;;;;;5053890;28;1312;-65
2021/01/14 04:48:30;;;;;;;;;;;19.30;56.50;;;;;;5054590;28;1272;-65
2021/01/14 04:50:55;;;;;;;;;;;19.30;56.50;;;;;;5060537;28;1134;-66
2021/01/14 04:53:21;;;;;;;;;;;19.30;56.50;;;;;;5043170;28;1422;-65
2021/01/14 04:55:47;;;;;;;;;;;19.30;56.50;;;;;;5053910;28;1099;-64
2021/01/14 04:58:18;;;;;;;;;;;19.40;56.50;;;;;;5036382;28;1108;-64
2021/01/14 05:00:50;;;;;;;;;;;19.40;56.50;;;;;;5036917;28;1914;-66
2021/01/14 05:03:23;;;;;;;;;;;19.40;56.50;;;;;;5039892;28;1210;-65
2021/01/14 05:05:49;;;;;;;;;;;19.40;56.50;;;;;;5016004;28;1418;-68
2021/01/14 05:08:15;;;;;;;;;;;19.40;56.50;;;;;;5016103;28;1069;-65
2021/01/14 05:10:40;;;;;;;;;;;19.40;56.50;;;;;;5034405;28;1056;-65
2021/01/14 05:13:07;;;;;;;;;;;19.40;56.50;;;;;;5022399;28;1307;-65
2021/01/14 05:15:32;;;;;;;;;;;19.40;56.40;;;;;;5053090;28;1084;-64
2021/01/14 05:17:58;;;;;;;;;;;19.40;56.40;;;;;;5035824;28;1085;-65
2021/01/14 05:20:24;;;;;;;;;;;19.40;56.40;;;;;;5053953;28;1910;-65
2021/01/14 05:22:59;;;;;;;;;;;19.40;56.40;;;;;;5035694;28;1335;-65
2021/01/14 05:25:25;;;;;;;;;;;19.40;56.40;;;;;;5036164;28;827;-65
2021/01/14 05:27:50;;;;;;;;;;;19.40;56.40;;;;;;5037897;28;1190;-65
2021/01/14 05:30:16;;;;;;;;;;;19.40;56.40;;;;;;5015962;28;1316;-64
2021/01/14 05:32:42;;;;;;;;;;;19.40;56.40;;;;;;5016074;28;1351;-65
2021/01/14 05:35:08;;;;;;;;;;;19.40;56.40;;;;;;5032798;28;1280;-64
2021/01/14 05:37:34;;;;;;;;;;;19.40;56.50;;;;;;5033555;28;1334;-65
2021/01/14 05:40:00;;;;;;;;;;;19.40;56.40;;;;;;5033787;28;1957;-64
2021/01/14 05:42:26;;;;;;;;;;;19.40;56.40;;;;;;5032674;28;1349;-65
2021/01/14 05:44:51;;;;;;;;;;;19.40;56.40;;;;;;5015022;28;1104;-65
2021/01/14 05:47:24;;;;;;;;;;;19.40;56.40;;;;;;5015469;28;1410;-64
2021/01/14 05:50:05;;;;;;;;;;;19.40;56.40;;;;;;5033203;28;1104;-65
2021/01/14 05:52:31;;;;;;;;;;;19.40;56.50;;;;;;5066016;28;1286;-64
2021/01/14 05:54:57;;;;;;;;;;;19.40;56.40;;;;;;5052697;28;1402;-66
2021/01/14 05:57:22;;;;;;;;;;;19.40;56.40;;;;;;5052848;28;1305;-65
2021/01/14 05:59:52;;;;;;;;;;;19.40;56.40;;;;;;5035103;28;1902;-64
2021/01/14 06:02:25;;;;;;;;;;;19.40;56.50;;;;;;5033632;28;1373;-65
2021/01/14 06:04:51;;;;;;;;;;;19.40;56.40;;;;;;5015497;28;1120;-65
2021/01/14 06:07:16;;;;;;;;;;;19.40;56.40;;;;;;5033113;28;1286;-65
2021/01/14 06:09:42;;;;;;;;;;;19.40;56.40;;;;;;5033039;28;1280;-65
2021/01/14 06:12:14;;;;;;;;;;;19.40;56.40;;;;;;5033866;28;1339;-66
2021/01/14 06:14:40;;;;;;;;;;;19.40;56.40;;;;;;5050535;28;1169;-66
2021/01/14 06:17:06;;;;;;;;;;;19.40;56.40;;;;;;5040859;28;2374;-66
2021/01/14 06:19:31;;;;;;;;;;;19.40;56.50;;;;;;5051568;28;1223;-67
2021/01/14 06:21:57;;;;;;;;;;;19.40;56.50;;;;;;5051712;28;1969;-67
2021/01/14 06:24:36;;;;;;;;;;;19.40;56.50;;;;;;5033512;28;1205;-67
2021/01/14 06:27:04;;;;;;;;;;;19.40;56.50;;;;;;5046055;28;2162;-65
2021/01/14 06:29:29;;;;;;;;;;;19.40;56.50;;;;;;5051813;28;1268;-66
2021/01/14 06:32:13;;;;;;;;;;;19.40;56.50;;;;;;5052393;28;1350;-66
2021/01/14 06:34:46;;;;;;;;;;;19.40;56.50;;;;;;5051960;28;1394;-66
2021/01/14 06:37:12;;;;;;;;;;;19.40;56.50;;;;;;5051184;28;1404;-66
2021/01/14 06:39:42;;;;;;;;;;;19.40;56.50;;;;;;5033819;28;1356;-66
2021/01/14 06:42:13;;;;;;;;;;;19.40;56.50;;;;;;5050670;28;1555;-65
2021/01/14 06:44:39;;;;;;;;;;;19.40;56.50;;;;;;5050932;28;1267;-65
2021/01/14 06:47:04;;;;;;;;;;;19.40;56.50;;;;;;5033376;28;1284;-65
2021/01/14 06:49:30;;;;;;;;;;;19.40;56.50;;;;;;5033459;28;1350;-65
2021/01/14 06:51:57;;;;;;;;;;;19.40;56.50;;;;;;5033510;28;1293;-65
2021/01/14 06:54:26;;;;;;;;;;;19.40;56.50;;;;;;5050774;28;1359;-65
2021/01/14 06:56:56;;;;;;;;;;;19.40;56.50;;;;;;5051121;28;1254;-66
2021/01/14 06:59:22;;;;;;;;;;;19.40;56.50;;;;;;5050328;28;1415;-66
2021/01/14 07:02:06;;;;;;;;;;;19.40;56.50;;;;;;5050111;28;2330;-65
2021/01/14 07:04:35;;;;;;;;;;;19.40;56.40;;;;;;5047051;28;1868;-65
2021/01/14 07:07:27;;;;;;;;;;;19.40;56.50;;;;;;5049994;28;1221;-65
2021/01/14 07:10:08;;;;;;;;;;;19.40;56.50;;;;;;5048760;28;1964;-65
2021/01/14 07:12:34;;;;;;;;;;;19.40;56.50;;;;;;5049655;28;1263;-67
2021/01/14 07:15:10;;;;;;;;;;;19.40;56.50;;;;;;5032049;28;1487;-66
2021/01/14 07:17:37;;;;;;;;;;;19.40;56.50;;;;;;5045662;28;2109;-66
2021/01/14 07:20:03;;;;;;;;;;;19.40;56.50;;;;;;5049218;28;1961;-66
2021/01/14 07:22:33;;;;;;;;;;;19.40;56.50;;;;;;5033920;28;1682;-65
2021/01/14 07:24:59;;;;;;;;;;;19.40;56.50;;;;;;5032749;28;2016;-65
2021/01/14 07:27:24;;;;;;;;;;;19.40;56.50;;;;;;5051708;28;1132;-65
2021/01/14 07:29:50;;;;;;;;;;;19.40;57.10;;;;;;5033639;28;1304;-65
2021/01/14 07:32:16;;;;;;;;;;;19.40;56.50;;;;;;5052198;28;1280;-66
2021/01/14 07:34:42;;;;;;;;;;;19.40;56.50;;;;;;5051221;28;1276;-65
2021/01/14 07:37:08;;;;;;;;;;;19.40;56.50;;;;;;5051633;28;1358;-65
2021/01/14 07:39:52;;;;;;;;;;;19.40;56.50;;;;;;5033886;28;1356;-65
2021/01/14 07:42:27;;;;;;;;;;;19.40;56.50;;;;;;5049057;28;2208;-65
2021/01/14 07:45:05;;;;;;;;;;;19.40;56.50;;;;;;5051114;28;883;-66
2021/01/14 07:47:34;;;;;;;;;;;19.40;56.50;;;;;;5047029;28;1360;-65
2021/01/14 07:50:20;;;;;;;;;;;19.40;56.50;;;;;;5033799;28;1192;-65
2021/01/14 07:52:46;;;;;;;;;;;19.40;56.50;;;;;;5039091;28;1288;-65
2021/01/14 07:55:12;;;;;;;;;;;19.40;56.50;;;;;;5051084;28;1348;-65
2021/01/14 07:57:42;;;;;;;;;;;19.40;56.50;;;;;;5051410;28;934;-65
2021/01/14 08:00:09;;;;;;;;;;;19.40;56.50;;;;;;5051757;28;1902;-65
2021/01/14 08:02:52;;;;;;;;;;;19.40;56.50;;;;;;5051791;28;1322;-65
2021/01/14 08:05:36;;;;;;;;;;;19.40;56.50;;;;;;5050877;28;1276;-65
2021/01/14 08:08:20;;;;;;;;;;;19.40;56.50;;;;;;5054836;28;1328;-65
2021/01/14 08:10:45;;;;;;;;;;;19.40;56.50;;;;;;5055273;28;1305;-65
2021/01/14 08:13:11;;;;;;;;;;;19.40;56.50;;;;;;5054301;28;1349;-65
2021/01/14 08:15:36;;;;;;;;;;;19.40;56.40;;;;;;5055015;28;1369;-65
2021/01/14 08:18:09;;;;;;;;;;;19.40;56.30;;;;;;5054736;28;1396;-65
2021/01/14 08:20:34;;;;;;;;;;;19.40;56.20;;;;;;5054725;28;1945;-65
2021/01/14 08:23:00;;;;;;;;;;;19.50;56.20;;;;;;5054950;28;1373;-65
2021/01/14 08:25:32;;;;;;;;;;;19.50;56.10;;;;;;5036448;28;1326;-66
2021/01/14 08:28:04;;;;;;;;;;;19.50;56.10;;;;;;5036451;28;1277;-65
2021/01/14 08:30:29;;;;;;;;;;;19.50;56.00;;;;;;5054741;28;1272;-65
2021/01/14 08:32:58;;;;;;;;;;;19.60;56.00;;;;;;5036740;28;1724;-66
2021/01/14 08:35:30;;;;;;;;;;;19.60;55.90;;;;;;5054128;28;1359;-66
2021/01/14 08:37:56;;;;;;;;;;;19.60;55.90;;;;;;5036717;28;1344;-66
2021/01/14 08:40:21;;;;;;;;;;;19.60;55.90;;;;;;5036456;28;1950;-66
2021/01/14 08:42:47;;;;;;;;;;;19.60;55.80;;;;;;5054039;28;1359;-67
2021/01/14 08:45:16;;;;;;;;;;;19.60;55.80;;;;;;5036548;28;1175;-66
2021/01/14 08:47:51;;;;;;;;;;;19.60;55.80;;;;;;5036746;28;1410;-67
2021/01/14 08:50:16;;;;;;;;;;;19.60;55.80;;;;;;5054669;28;1283;-66
2021/01/14 08:52:42;;;;;;;;;;;19.60;55.80;;;;;;5049591;28;1276;-66
2021/01/14 08:55:08;;;;;;;;;;;19.60;55.80;;;;;;5035951;28;1153;-66
2021/01/14 08:57:49;;;;;;;;;;;19.60;55.80;;;;;;5053464;28;1242;-66
2021/01/14 09:00:15;;;;;;;;;;;19.70;55.80;;;;;;5033950;28;1898;-66
2021/01/14 09:02:41;;;;;;;;;;;19.60;55.80;;;;;;5034452;28;1256;-66
2021/01/14 09:05:06;;;;;;;;;;;19.60;56.40;;;;;;5015312;28;1284;-67
2021/01/14 09:07:32;;;;;;;;;;;19.60;55.80;;;;;;5034052;28;1280;-66
2021/01/14 09:09:57;;;;;;;;;;;19.60;55.80;;;;;;5034057;28;1132;-66
2021/01/14 09:12:23;;;;;;;;;;;19.60;55.80;;;;;;5034362;28;1366;-66
2021/01/14 09:14:48;;;;;;;;;;;19.60;55.80;;;;;;5054090;28;1048;-66
2021/01/14 09:17:15;;;;;;;;;;;19.60;55.80;;;;;;5053686;28;1566;-66
2021/01/14 09:19:41;;;;;;;;;;;19.60;55.80;;;;;;5035853;28;1300;-66
2021/01/14 09:22:06;;;;;;;;;;;19.60;55.80;;;;;;5053647;28;1967;-66
2021/01/14 09:24:33;;;;;;;;;;;19.60;55.90;;;;;;5053115;28;1338;-66
2021/01/14 09:26:59;;;;;;;;;;;19.60;55.90;;;;;;5053183;28;1259;-66
2021/01/14 09:29:30;;;;;;;;;;;19.60;55.90;;;;;;5053876;28;1308;-66
2021/01/14 09:31:56;;;;;;;;;;;19.60;55.90;;;;;;5053504;28;1409;-66
2021/01/14 09:34:22;;;;;;;;;;;19.60;56.00;;;;;;5052709;28;1194;-66
2021/01/14 09:36:47;;;;;;;;;;;19.60;56.00;;;;;;5053976;28;1324;-66
2021/01/14 09:39:16;;;;;;;;;;;19.60;56.00;;;;;;5053234;28;1323;-66
2021/01/14 09:41:42;;;;;;;;;;;19.60;56.00;;;;;;5053434;28;1890;-66
2021/01/14 09:44:08;;;;;;;;;;;19.60;56.00;;;;;;5041522;28;1214;-66
2021/01/14 09:46:37;;;;;;;;;;;19.60;56.00;;;;;;5035136;28;1099;-66
2021/01/14 09:49:07;;;;;;;;;;;19.50;56.10;;;;;;5053249;28;1355;-66
2021/01/14 09:51:33;;;;;;;;;;;19.60;56.10;;;;;;5064497;28;1305;-65
2021/01/14 09:53:58;;;;;;;;;;;19.60;56.10;;;;;;5054590;28;1313;-66
2021/01/14 09:56:28;;;;;;;;;;;19.50;56.10;;;;;;5044868;28;1385;-66
2021/01/14 09:58:54;;;;;;;;;;;19.50;56.10;;;;;;5052223;28;1359;-66
2021/01/14 10:01:21;;;;;;;;;;;19.50;56.10;;;;;;5022538;28;1898;-65
2021/01/14 10:03:48;;;;;;;;;;;19.50;56.10;;;;;;5016116;28;1268;-65
2021/01/14 10:06:14;;;;;;;;;;;19.50;56.10;;;;;;5022677;28;1271;-66
2021/01/14 10:08:45;;;;;;;;;;;19.60;56.00;;;;;;5014159;28;1340;-65
2021/01/14 10:11:11;;;;;;;;;;;19.60;56.00;;;;;;5032059;28;1303;-66
2021/01/14 10:13:36;;;;;;;;;;;19.60;55.90;;;;;;5024572;28;1427;-65
2021/01/14 10:16:10;;;;;;;;;;;19.70;55.90;;;;;;5033704;28;1356;-65
2021/01/14 10:18:36;;;;;;;;;;;19.80;55.70;;;;;;5051904;28;1296;-65
2021/01/14 10:21:02;;;;;;;;;;;19.90;55.50;;;;;;5051542;28;1961;-65
2021/01/14 10:23:28;;;;;;;;;;;20.00;55.30;;;;;;5033953;28;1316;-65
2021/01/14 10:25:55;;;;;;;;;;;20.10;55.10;;;;;;5034303;28;1166;-65
2021/01/14 10:28:23;;;;;;;;;;;20.20;54.90;;;;;;5051534;28;1312;-65
2021/01/14 10:30:49;;;;;;;;;;;20.30;54.70;;;;;;5051317;28;1343;-66
2021/01/14 10:33:14;;;;;;;;;;;20.40;54.50;;;;;;5051266;28;1395;-65
2021/01/14 10:35:40;;;;;;;;;;;20.50;54.40;;;;;;5050982;28;1385;-65
2021/01/14 10:38:12;;;;;;;;;;;20.50;54.10;;;;;;5052183;28;1296;-65
2021/01/14 10:40:41;;;;;;;;;;;20.60;54.00;;;;;;5051168;28;1902;-66
2021/01/14 10:43:10;;;;;;;;;;;20.60;53.90;;;;;;5051778;28;1386;-65
2021/01/14 10:45:36;;;;;;;;;;;20.70;53.80;;;;;;5033055;28;1284;-66
2021/01/14 10:48:05;;;;;;;;;;;20.70;53.70;;;;;;5050957;28;1349;-65
2021/01/14 10:50:30;;;;;;;;;;;20.80;53.60;;;;;;5053858;28;1299;-66
2021/01/14 10:52:56;;;;;;;;;;;20.80;54.20;;;;;;5062536;28;1719;-65
2021/01/14 10:55:21;;;;;;;;;;;20.80;53.50;;;;;;5051490;28;1284;-65
2021/01/14 10:57:53;;;;;;;;;;;20.80;53.40;;;;;;5051292;28;1280;-65
2021/01/14 11:00:20;;;;;;;;;;;20.80;53.40;;;;;;5051162;28;1973;-65
2021/01/14 11:02:45;;;;;;;;;;;20.80;53.40;;;;;;5051210;28;1232;-65
2021/01/14 11:05:12;;;;;;;;;;;20.90;53.40;;;;;;5051339;28;1311;-65
2021/01/14 11:07:37;;;;;;;;;;;20.90;53.40;;;;;;5051497;28;1315;-66
2021/01/14 11:10:06;;;;;;;;;;;20.90;53.30;;;;;;5033487;28;1306;-66
2021/01/14 11:12:32;;;;;;;;;;;20.90;53.30;;;;;;5051214;28;1304;-66
2021/01/14 11:14:58;;;;;;;;;;;21.00;53.20;;;;;;5050726;28;1339;-66
2021/01/14 11:17:24;;;;;;;;;;;21.00;53.20;;;;;;5051079;28;1293;-65
2021/01/14 11:19:50;;;;;;;;;;;21.00;53.20;;;;;;5051919;28;1272;-66
2021/01/14 11:22:16;;;;;;;;;;;21.00;53.10;;;;;;5050102;28;1311;-66
2021/01/14 11:24:41;;;;;;;;;;;21.10;53.10;;;;;;5049632;28;1275;-65
2021/01/14 11:27:06;;;;;;;;;;;21.10;53.00;;;;;;5049490;28;1255;-66
2021/01/14 11:29:33;;;;;;;;;;;21.10;53.00;;;;;;5050447;28;1064;-66
2021/01/14 11:31:59;;;;;;;;;;;21.20;53.00;;;;;;5049931;28;1347;-66
2021/01/14 11:34:25;;;;;;;;;;;21.20;53.00;;;;;;5049890;28;1338;-66
2021/01/14 11:36:50;;;;;;;;;;;21.20;52.90;;;;;;5051411;28;1288;-66
2021/01/14 11:39:16;;;;;;;;;;;21.20;52.90;;;;;;5051853;28;1316;-66
2021/01/14 11:41:41;;;;;;;;;;;21.20;52.90;;;;;;5054837;28;1963;-66
2021/01/14 11:44:07;;;;;;;;;;;21.20;52.80;;;;;;5054923;28;1378;-66
2021/01/14 11:46:32;;;;;;;;;;;21.30;52.80;;;;;;5055370;28;1311;-66
2021/01/14 11:48:58;;;;;;;;;;;21.30;52.80;;;;;;5055785;28;1282;-66
2021/01/14 11:51:23;;;;;;;;;;;21.30;52.80;;;;;;5053167;28;1318;-66
2021/01/14 11:53:49;;;;;;;;;;;21.30;52.80;;;;;;5050549;28;1022;-66
2021/01/14 11:56:14;;;;;;;;;;;21.30;52.80;;;;;;5053398;28;1261;-67
2021/01/14 11:58:40;;;;;;;;;;;21.30;52.80;;;;;;5035986;28;1276;-66
2021/01/14 12:01:05;;;;;;;;;;;21.30;52.80;;;;;;5054208;28;1933;-66
2021/01/14 12:03:32;;;;;;;;;;;21.30;52.80;;;;;;5053861;28;1273;-66
2021/01/14 12:05:58;;;;;;;;;;;21.30;52.80;;;;;;5054154;28;1303;-66
2021/01/14 12:08:23;;;;;;;;;;;21.30;52.80;;;;;;5054531;28;1321;-66
2021/01/14 12:10:49;;;;;;;;;;;21.30;52.90;;;;;;5054350;28;1331;-66
2021/01/14 12:13:14;;;;;;;;;;;21.30;52.90;;;;;;5054571;28;1303;-66
2021/01/14 12:15:40;;;;;;;;;;;21.30;53.00;;;;;;5054983;28;1343;-66
2021/01/14 12:18:05;;;;;;;;;;;21.20;52.90;;;;;;5054698;28;1303;-66
2021/01/14 12:20:31;;;;;;;;;;;21.20;53.00;;;;;;5055219;28;1984;-66
2021/01/14 12:22:56;;;;;;;;;;;21.20;53.10;;;;;;5036892;28;1316;-66
2021/01/14 12:25:22;;;;;;;;;;;21.20;53.10;;;;;;5054311;28;1339;-66
2021/01/14 12:27:47;;;;;;;;;;;21.20;53.10;;;;;;5054684;28;1200;-66
2021/01/14 12:30:13;;;;;;;;;;;21.20;53.20;;;;;;5054900;28;1354;-66
2021/01/14 12:32:39;;;;;;;;;;;21.10;53.20;;;;;;5036499;28;1282;-66
2021/01/14 12:35:05;;;;;;;;;;;21.10;53.20;;;;;;5054280;28;1322;-66
2021/01/14 12:37:31;;;;;;;;;;;21.10;53.30;;;;;;5036547;28;1268;-66
2021/01/14 12:39:57;;;;;;;;;;;21.10;53.90;;;;;;5036638;28;1890;-66
2021/01/14 12:42:22;;;;;;;;;;;21.00;53.30;;;;;;5035955;28;1367;-66
2021/01/14 12:44:47;;;;;;;;;;;21.00;53.40;;;;;;5054375;28;1274;-66
2021/01/14 12:47:13;;;;;;;;;;;21.00;53.50;;;;;;5054400;28;1258;-66
2021/01/14 12:49:38;;;;;;;;;;;21.00;53.50;;;;;;5054324;28;1087;-66
2021/01/14 12:52:04;;;;;;;;;;;21.00;53.60;;;;;;5066829;28;1247;-67
2021/01/14 12:54:29;;;;;;;;;;;21.00;53.60;;;;;;5054352;28;1328;-66
2021/01/14 12:56:55;;;;;;;;;;;21.00;53.60;;;;;;5053967;28;1297;-66
2021/01/14 12:59:20;;;;;;;;;;;20.90;53.60;;;;;;5053953;28;1297;-66
2021/01/14 13:01:46;;;;;;;;;;;20.90;53.70;;;;;;5036358;28;1923;-66
2021/01/14 13:04:11;;;;;;;;;;;20.90;53.70;;;;;;5054337;28;1295;-67
2021/01/14 13:06:37;;;;;;;;;;;20.90;53.80;;;;;;5053806;28;1281;-67
2021/01/14 13:09:04;;;;;;;;;;;20.80;53.80;;;;;;5036674;28;1318;-67
2021/01/14 13:11:29;;;;;;;;;;;20.80;53.80;;;;;;5035639;28;1369;-67
2021/01/14 13:13:55;;;;;;;;;;;20.80;53.90;;;;;;5054078;28;1214;-67
2021/01/14 13:16:22;;;;;;;;;;;20.80;53.90;;;;;;5053337;28;1288;-67
2021/01/14 13:18:48;;;;;;;;;;;20.80;54.00;;;;;;5053682;28;1326;-67
2021/01/14 13:21:13;;;;;;;;;;;20.80;54.00;;;;;;5053868;28;1975;-68
2021/01/14 13:23:39;;;;;;;;;;;20.80;54.00;;;;;;5053355;28;1381;-67
2021/01/14 13:26:10;;;;;;;;;;;20.80;54.10;;;;;;5052984;28;1263;-67
2021/01/14 13:28:36;;;;;;;;;;;20.70;54.10;;;;;;5053997;28;1402;-67
2021/01/14 13:31:01;;;;;;;;;;;20.70;54.10;;;;;;5053331;28;1084;-67
2021/01/14 13:33:27;;;;;;;;;;;20.70;54.10;;;;;;5035933;28;1354;-67
2021/01/14 13:35:56;;;;;;;;;;;20.70;54.20;;;;;;5035803;28;1312;-67
2021/01/14 13:38:21;;;;;;;;;;;20.70;54.30;;;;;;5036123;28;1206;-67
2021/01/14 13:40:47;;;;;;;;;;;20.60;54.20;;;;;;5052570;28;1945;-68
2021/01/14 13:43:13;;;;;;;;;;;20.70;54.30;;;;;;5049376;28;2974;-67
2021/01/14 13:45:38;;;;;;;;;;;20.60;54.30;;;;;;5035705;28;1359;-67
2021/01/14 13:48:04;;;;;;;;;;;20.60;54.40;;;;;;5053890;28;1131;-67
2021/01/14 13:50:29;;;;;;;;;;;20.60;54.40;;;;;;5055346;28;1276;-67
2021/01/14 13:52:55;;;;;;;;;;;20.60;54.50;;;;;;5058361;28;1369;-67
2021/01/14 13:55:20;;;;;;;;;;;20.60;54.50;;;;;;5052414;28;1323;-67
2021/01/14 13:57:46;;;;;;;;;;;20.50;54.50;;;;;;5052963;28;1338;-67
2021/01/14 14:00:11;;;;;;;;;;;20.50;54.50;;;;;;5053037;28;1960;-67
2021/01/14 14:02:37;;;;;;;;;;;20.50;54.50;;;;;;5052742;28;1344;-67
2021/01/14 14:05:03;;;;;;;;;;;20.50;54.60;;;;;;5051403;28;1349;-67
2021/01/14 14:07:28;;;;;;;;;;;20.50;54.60;;;;;;5052348;28;1286;-67
2021/01/14 14:09:53;;;;;;;;;;;20.50;54.70;;;;;;5052892;28;1341;-67
2021/01/14 14:12:19;;;;;;;;;;;20.50;54.70;;;;;;5052811;28;1283;-67
2021/01/14 14:14:45;;;;;;;;;;;20.50;54.70;;;;;;5047974;28;1278;-67
2021/01/14 14:17:10;;;;;;;;;;;20.40;54.70;;;;;;5047292;28;2106;-67
2021/01/14 14:19:36;;;;;;;;;;;20.40;54.80;;;;;;5052408;28;1371;-68
2021/01/14 14:22:01;;;;;;;;;;;20.40;55.40;;;;;;5059881;28;1902;-68
2021/01/14 14:24:27;;;;;;;;;;;20.40;54.80;;;;;;5056554;28;1330;-68
2021/01/14 14:26:53;;;;;;;;;;;20.30;54.80;;;;;;5052886;28;1308;-68
2021/01/14 14:29:19;;;;;;;;;;;20.40;54.90;;;;;;5052699;28;1308;-67
2021/01/14 14:31:44;;;;;;;;;;;20.30;54.90;;;;;;5051959;28;1343;-67